Khushab Weather



Khushab's Current Weather

Temprature 23.062o broken clouds

broken clouds

Rain: 0 %

Min Temprature23.062o
Max Temprature23.062o
Humidity54
Wind Speed2.9 m/h
Sun Rise05:08:01
Sun Set19:07:04
Current Time: 24-May-2019 04:47:23
Lat/Lon: 32.29, 72.35




Khushab's Geo Location



Khushab's Weather Forecast

Time Overall Temp Min Temp Max Temp Humidity Wind Speed Rain
24-May-2019 (Fri)
05:00:00 broken clouds 22.250 22.250 23.062 54 2.9 m/h 0 %
08:00:00 clear sky 25.240 25.240 25.850 45 2.89 m/h 0 %
11:00:00 clear sky 28.740 28.740 29.150 35 0.4 m/h 0 %
14:00:00 clear sky 31.550 31.550 31.750 25 2.28 m/h 0 %
17:00:00 few clouds 32.250 32.250 32.250 24 3.97 m/h 0 %
20:00:00 overcast clouds 28.289 28.289 28.289 36 2.68 m/h 0 %
23:00:00 broken clouds 26.889 26.889 26.889 41 2.84 m/h 0 %
25-May-2019 (Sat)
02:00:00 clear sky 25.389 25.389 25.389 44 2.1 m/h 0 %
05:00:00 clear sky 24.520 24.520 24.520 44 2.96 m/h 0 %
08:00:00 clear sky 27.638 27.638 27.638 38 3.53 m/h 0 %
11:00:00 clear sky 30.982 30.982 30.982 27 3.34 m/h 0 %
14:00:00 clear sky 33.380 33.380 33.380 19 2.8 m/h 0 %
17:00:00 clear sky 33.965 33.965 33.965 15 2.63 m/h 0 %
20:00:00 clear sky 30.538 30.538 30.538 19 1.47 m/h 0 %
23:00:00 clear sky 29.055 29.055 29.055 20 1.45 m/h 0 %
26-May-2019 (Sun)
02:00:00 clear sky 28.268 28.268 28.268 20 1.64 m/h 0 %
05:00:00 light rain 26.950 26.950 26.950 20 2.69 m/h 75 %
08:00:00 clear sky 30.150 30.150 30.150 19 5.45 m/h 0 %
11:00:00 clear sky 33.379 33.379 33.379 12 5.28 m/h 0 %
14:00:00 clear sky 35.050 35.050 35.050 12 3.07 m/h 0 %
17:00:00 clear sky 35.301 35.301 35.301 11 2.57 m/h 0 %
20:00:00 clear sky 31.150 31.150 31.150 16 3.27 m/h 0 %
23:00:00 clear sky 29.674 29.674 29.674 18 3.35 m/h 0 %
27-May-2019 (Mon)
02:00:00 clear sky 28.250 28.250 28.250 17 4.12 m/h 0 %
05:00:00 clear sky 26.352 26.352 26.352 11 5.34 m/h 0 %
08:00:00 clear sky 29.059 29.059 29.059 16 5.61 m/h 0 %
11:00:00 clear sky 33.744 33.744 33.744 12 4.17 m/h 0 %
14:00:00 clear sky 35.386 35.386 35.386 10 2.26 m/h 0 %
17:00:00 clear sky 36.213 36.213 36.213 10 2.37 m/h 0 %
20:00:00 clear sky 31.887 31.887 31.887 13 3.1 m/h 0 %
23:00:00 clear sky 30.470 30.470 30.470 13 2.41 m/h 0 %
28-May-2019 (Tue)
02:00:00 clear sky 29.680 29.680 29.680 11 2.56 m/h 0 %
05:00:00 clear sky 27.687 27.687 27.687 13 3.32 m/h 0 %
08:00:00 clear sky 31.266 31.266 31.266 13 3.51 m/h 0 %
11:00:00 clear sky 35.055 35.055 35.055 10 3.23 m/h 0 %
14:00:00 clear sky 36.851 36.851 36.851 8 1.11 m/h 0 %
17:00:00 clear sky 37.250 37.250 37.250 8 2.1 m/h 0 %
20:00:00 clear sky 33.150 33.150 33.150 12 2.58 m/h 0 %
23:00:00 clear sky 31.475 31.475 31.475 13 2.18 m/h 0 %
29-May-2019 (Wed)
02:00:00 clear sky 30.612 30.612 30.612 13 2.9 m/h 0 %

Famous Cities (60)